Time;durP1;ratioP1;P1;durP2;ratioP2;P2;SDS_P1;SDS_P2;PMS_P1;PMS_P2;Temp;Humidity;BMP_temperature;BMP_pressure;BME280_temperature;BME280_humidity;BME280_pressure;Samples;Min_cycle;Max_cycle;Signal;HPM_P1;HPM_P2
2022/05/17 00:05:58;;;;;;;5.40;3.40;;;;;;;14.18;47.40;98792.55;434232;1267;97893;-43
2022/05/17 00:16:06;;;;;;;8.40;3.90;;;;;;;14.02;47.54;98782.80;434198;1267;111082;-45
2022/05/17 00:26:13;;;;;;;8.00;3.80;;;;;;;13.92;47.74;98770.81;434168;1267;108701;-44
2022/05/17 00:36:22;;;;;;;6.00;2.90;;;;;;;13.86;47.90;98757.88;434229;1268;97919;-42
2022/05/17 00:56:42;;;;;;;7.60;3.80;;;;;;;13.62;48.35;98757.09;434162;1267;108817;-42
2022/05/17 01:06:50;;;;;;;8.80;3.10;;;;;;;13.43;48.47;98752.02;434892;1257;97927;-45
2022/05/17 01:16:57;;;;;;;8.30;3.90;;;;;;;13.28;48.86;98748.79;434077;1267;97516;-47
2022/05/17 01:27:02;;;;;;;5.40;3.90;;;;;;;13.27;49.14;98745.35;434152;1266;111123;-42
2022/05/17 01:37:12;;;;;;;8.30;5.20;;;;;;;13.33;49.30;98746.73;434046;1267;107812;-43
2022/05/17 01:47:20;;;;;;;10.30;3.90;;;;;;;13.22;49.39;98735.45;433898;1267;97945;-47
2022/05/17 01:57:27;;;;;;;6.70;4.20;;;;;;;13.01;49.73;98736.29;434087;1267;111230;-47
2022/05/17 02:07:34;;;;;;;8.40;4.70;;;;;;;12.96;50.01;98730.79;434029;1267;108922;-48
2022/05/17 02:27:49;;;;;;;9.20;4.20;;;;;;;12.80;50.66;98720.58;433942;1267;111100;-46
2022/05/17 02:37:56;;;;;;;13.30;5.50;;;;;;;12.64;50.99;98714.38;434250;1266;109131;-44
2022/05/17 02:48:04;;;;;;;11.80;4.80;;;;;;;12.53;51.20;98713.92;433938;1267;97904;-47
2022/05/17 02:58:10;;;;;;;6.30;4.00;;;;;;;12.45;51.59;98713.48;434159;1267;111650;-41
2022/05/17 03:08:18;;;;;;;9.00;3.80;;;;;;;12.58;51.73;98723.94;434111;1267;108795;-45
2022/05/17 03:18:25;;;;;;;13.10;4.60;;;;;;;12.69;51.74;98725.38;434027;1267;98191;-46
2022/05/17 03:28:32;;;;;;;8.40;4.90;;;;;;;12.68;51.71;98722.19;433329;1268;111064;-42
2022/05/17 03:38:40;;;;;;;9.30;4.40;;;;;;;12.58;51.93;98732.64;434090;1267;108826;-42
2022/05/17 03:48:47;;;;;;;7.20;3.50;;;;;;;12.77;52.12;98732.52;434015;1267;96700;-44
2022/05/17 03:58:54;;;;;;;7.70;4.20;;;;;;;14.03;51.62;98726.94;433963;1266;111748;-45
2022/05/17 04:09:01;;;;;;;11.90;4.10;;;;;;;14.62;50.80;98726.50;433886;1267;108677;-43
2022/05/17 04:19:09;;;;;;;11.30;4.60;;;;;;;15.25;50.17;98724.78;432985;1270;97048;-46
2022/05/17 04:29:16;;;;;;;18.30;6.20;;;;;;;15.55;49.60;98721.34;434094;1267;110194;-43
2022/05/17 04:39:24;;;;;;;16.30;5.40;;;;;;;15.69;49.26;98706.66;434144;1267;108905;-43
2022/05/17 04:59:38;;;;;;;11.30;5.10;;;;;;;16.15;48.88;98721.95;434019;1264;110670;-46
2022/05/17 05:09:45;;;;;;;14.50;5.70;;;;;;;16.36;48.70;98704.20;434117;1266;108878;-44
2022/05/17 05:19:53;;;;;;;15.90;6.60;;;;;;;16.90;48.43;98707.57;434029;1267;97935;-45
2022/05/17 05:30:00;;;;;;;19.10;7.80;;;;;;;17.61;48.00;98718.14;434089;1267;110878;-45
2022/05/17 05:40:11;;;;;;;18.10;5.60;;;;;;;18.59;47.25;98720.10;434003;1267;108945;-45
2022/05/17 05:50:19;;;;;;;12.10;4.30;;;;;;;18.53;46.07;98723.80;433994;1267;97923;-44
2022/05/17 06:10:34;;;;;;;11.80;4.10;;;;;;;18.63;45.86;98731.70;434069;1267;108703;-47
2022/05/17 06:20:42;;;;;;;26.10;8.00;;;;;;;19.43;45.15;98728.52;433985;1267;98032;-46
2022/05/17 06:30:48;;;;;;;18.60;5.90;;;;;;;19.83;44.02;98735.59;434183;1267;110553;-44
2022/05/17 06:40:55;;;;;;;6.30;3.50;;;;;;;20.08;43.77;98742.05;433973;1267;108535;-43
2022/05/17 06:51:03;;;;;;;15.60;4.00;;;;;;;19.51;43.50;98750.07;434074;1267;97878;-42
2022/05/17 07:01:10;;;;;;;7.80;3.00;;;;;;;19.20;43.70;98754.86;434069;1267;111059;-43
2022/05/17 07:21:43;;;;;;;7.80;2.90;;;;;;;18.53;44.98;98764.92;434036;1267;97496;-46
2022/05/17 07:42:04;;;;;;;6.90;2.60;;;;;;;19.89;44.09;98759.83;434039;1268;108749;-47
2022/05/17 07:52:13;;;;;;;8.50;2.90;;;;;;;20.52;43.24;98762.71;434151;1268;97481;-46
2022/05/17 08:02:20;;;;;;;4.80;2.30;;;;;;;20.95;42.12;98765.60;434124;1267;108853;-46
2022/05/17 08:12:27;;;;;;;6.90;3.00;;;;;;;20.79;41.27;98767.91;434065;1267;97903;-45
2022/05/17 08:22:37;;;;;;;3.30;1.80;;;;;;;20.99;41.05;98772.75;433956;1267;111181;-46
2022/05/17 08:43:23;;;;;;;1.80;1.30;;;;;;;21.11;39.13;98764.81;434176;1267;97994;-42
2022/05/17 08:53:30;;;;;;;7.00;1.20;;;;;;;21.21;37.72;98766.10;434145;1268;111008;-41
2022/05/17 09:03:39;;;;;;;1.80;1.20;;;;;;;20.57;36.82;98766.95;434052;1268;108839;-45
2022/05/17 09:13:48;;;;;;;4.70;1.50;;;;;;;20.14;36.40;98767.74;434077;1268;97894;-43
2022/05/17 09:24:18;;;;;;;4.90;1.40;;;;;;;19.89;37.10;98775.41;434019;1267;111047;-47
2022/05/17 09:34:27;;;;;;;5.70;1.80;;;;;;;19.80;37.71;98783.30;434001;1267;108861;-47
2022/05/17 09:44:40;;;;;;;3.70;1.70;;;;;;;19.78;38.00;98782.35;434144;1267;97896;-42
2022/05/17 09:54:49;;;;;;;4.40;1.80;;;;;;;19.65;37.77;98783.09;434053;1267;110230;-45
2022/05/17 10:04:57;;;;;;;5.00;1.20;;;;;;;19.78;38.15;98790.39;434011;1267;108797;-43
2022/05/17 10:15:03;;;;;;;3.80;1.10;;;;;;;19.57;37.70;98792.60;433159;1268;97913;-47
2022/05/17 10:25:08;;;;;;;4.60;1.10;;;;;;;19.39;37.76;98792.91;434123;1267;111117;-46
2022/05/17 10:55:33;;;;;;;7.20;1.60;;;;;;;19.27;38.36;98798.88;433994;1267;110629;-42
2022/05/17 11:05:39;;;;;;;3.60;1.20;;;;;;;19.28;38.27;98803.70;434153;1267;108887;-46
2022/05/17 11:15:45;;;;;;;8.70;1.70;;;;;;;19.20;38.13;98810.52;434067;1267;97897;-47
2022/05/17 11:26:07;;;;;;;5.60;1.60;;;;;;;19.06;39.17;98822.38;434125;1267;110930;-47
2022/05/17 11:36:35;;;;;;;4.00;1.80;;;;;;;19.01;39.91;98831.69;434021;1267;109031;-45
2022/05/17 11:46:55;;;;;;;3.00;1.60;;;;;;;19.02;40.09;98839.35;433994;1267;98025;-46
2022/05/17 11:57:03;;;;;;;7.50;1.20;;;;;;;18.92;40.04;98840.80;434170;1267;109738;-44
2022/05/17 12:07:26;;;;;;;5.70;1.70;;;;;;;18.62;39.77;98840.45;434096;1266;109101;-46
2022/05/17 12:17:37;;;;;;;1.50;1.20;;;;;;;18.43;39.78;98832.08;432659;1270;98097;-47
2022/05/17 12:27:47;;;;;;;9.60;2.00;;;;;;;18.35;39.87;98834.09;433089;1270;111133;-46
2022/05/17 12:37:55;;;;;;;65.30;6.20;;;;;;;18.28;40.14;98835.47;433101;1269;109097;-42
2022/05/17 12:48:11;;;;;;;4.80;1.80;;;;;;;18.28;40.39;98840.70;432986;1270;97964;-43
2022/05/17 12:58:19;;;;;;;5.30;1.90;;;;;;;17.98;41.07;98845.27;433185;1270;110894;-44
2022/05/17 13:08:29;;;;;;;7.20;2.40;;;;;;;17.87;41.50;98845.14;433179;1268;108942;-45
2022/05/17 13:28:43;;;;;;;5.00;2.30;;;;;;;17.81;41.87;98844.52;433348;1268;111079;-48
2022/05/17 13:38:51;;;;;;;3.60;1.40;;;;;;;17.78;41.63;98849.59;433313;1269;108684;-46
2022/05/17 13:59:07;;;;;;;46.70;5.30;;;;;;;18.39;40.67;98852.71;433416;1268;111090;-44
2022/05/17 14:19:42;;;;;;;2.90;1.30;;;;;;;18.85;39.86;98851.58;433532;1269;98057;-46
2022/05/17 14:50:04;;;;;;;6.30;1.40;;;;;;;18.77;39.03;98862.98;433545;1269;97926;-47
2022/05/17 15:00:15;;;;;;;9.90;1.70;;;;;;;18.91;38.81;98862.29;433498;1268;111051;-42
2022/05/17 15:10:27;;;;;;;10.20;1.50;;;;;;;18.82;38.36;98867.82;433473;1270;108847;-46
2022/05/17 15:20:35;;;;;;;4.10;1.20;;;;;;;18.66;38.11;98867.21;433649;1269;97949;-46
2022/05/17 15:30:43;;;;;;;7.80;1.20;;;;;;;18.50;38.11;98866.90;433469;1269;111151;-47
2022/05/17 15:40:54;;;;;;;2.50;1.10;;;;;;;18.49;38.42;98857.65;433607;1270;108811;-44
2022/05/17 16:01:27;;;;;;;4.60;1.90;;;;;;;18.75;38.77;98855.77;433521;1269;111041;-42
2022/05/17 16:22:00;;;;;;;6.70;2.30;;;;;;;18.79;39.18;98855.95;433527;1268;97999;-46
2022/05/17 16:32:10;;;;;;;8.00;2.10;;;;;;;18.72;39.18;98856.41;433760;1268;111263;-50
2022/05/17 16:42:17;;;;;;;11.50;4.60;;;;;;;18.52;39.55;98863.64;433416;1268;108873;-45
2022/05/17 17:02:27;;;;;;;6.50;2.40;;;;;;;18.11;39.52;98883.60;433618;1269;110047;-47
2022/05/17 17:12:35;;;;;;;17.30;3.10;;;;;;;17.53;39.58;98888.42;433639;1269;108766;-47
2022/05/17 17:22:42;;;;;;;3.80;1.60;;;;;;;17.23;40.00;98892.86;433650;1269;97935;-42
2022/05/17 17:43:18;;;;;;;2.60;1.40;;;;;;;16.94;40.26;98906.17;433563;1269;109166;-43
2022/05/17 17:53:26;;;;;;;5.20;2.10;;;;;;;16.67;40.83;98921.15;433442;1269;96660;-45
2022/05/17 18:03:34;;;;;;;7.30;1.90;;;;;;;16.32;41.28;98937.10;433413;1268;110683;-45
2022/05/17 18:13:44;;;;;;;6.20;2.40;;;;;;;15.90;41.77;98951.30;433538;1269;108870;-46
2022/05/17 18:23:51;;;;;;;7.60;2.90;;;;;;;15.48;42.15;98966.84;433683;1269;97191;-42
2022/05/17 18:33:58;;;;;;;5.50;2.00;;;;;;;15.13;42.63;98988.45;432893;1270;111054;-43
2022/05/17 18:44:06;;;;;;;9.00;3.30;;;;;;;14.82;42.87;99010.45;433435;1269;108806;-47
2022/05/17 19:04:20;;;;;;;12.50;3.70;;;;;;;14.22;43.34;99045.16;433562;1269;112061;-43
2022/05/17 19:14:27;;;;;;;12.90;3.40;;;;;;;14.01;43.54;99055.08;433603;1270;108828;-46
2022/05/17 19:24:34;;;;;;;103.50;9.50;;;;;;;13.76;43.82;99062.95;433564;1270;98044;-43
2022/05/17 19:34:43;;;;;;;10.30;3.10;;;;;;;13.49;44.21;99077.61;433562;1269;111175;-47
2022/05/17 19:44:50;;;;;;;9.70;3.30;;;;;;;13.20;44.83;99097.55;433225;1269;108107;-45
2022/05/17 19:54:57;;;;;;;8.80;3.90;;;;;;;12.75;45.32;99114.45;433236;1268;97894;-42
2022/05/17 20:15:13;;;;;;;7.70;3.20;;;;;;;12.49;45.51;99151.58;433307;1270;107854;-42
2022/05/17 20:25:23;;;;;;;9.10;3.20;;;;;;;12.36;45.34;99163.79;433516;1269;97919;-47
2022/05/17 20:35:31;;;;;;;6.70;3.30;;;;;;;12.10;45.36;99175.18;433484;1268;108655;-46
2022/05/17 20:45:41;;;;;;;9.10;2.70;;;;;;;11.89;45.50;99193.19;433378;1269;97924;-43
2022/05/17 20:55:50;;;;;;;6.30;2.30;;;;;;;11.74;45.87;99203.09;433443;1268;111117;-45
2022/05/17 21:05:58;;;;;;;6.80;1.90;;;;;;;11.56;46.05;99208.18;433237;1269;108777;-43
2022/05/17 21:16:04;;;;;;;5.60;2.50;;;;;;;11.29;46.22;99217.81;433366;1269;97295;-43
2022/05/17 21:26:12;;;;;;;4.60;2.50;;;;;;;11.01;46.54;99231.59;433397;1269;108893;-45
2022/05/17 21:36:20;;;;;;;8.20;3.40;;;;;;;10.75;46.85;99244.48;433296;1270;97850;-46
2022/05/17 21:46:28;;;;;;;4.90;3.40;;;;;;;10.51;47.13;99255.48;433435;1269;111068;-46
2022/05/17 21:56:36;;;;;;;9.00;2.80;;;;;;;10.31;47.35;99266.70;433173;1269;108716;-43
2022/05/17 22:06:44;;;;;;;7.30;2.80;;;;;;;10.12;47.19;99277.75;433373;1268;97526;-43
2022/05/17 22:16:51;;;;;;;5.30;3.20;;;;;;;9.97;47.35;99291.92;433277;1269;110951;-45
2022/05/17 22:26:59;;;;;;;9.20;3.50;;;;;;;9.78;47.39;99301.30;433337;1269;108830;-46
2022/05/17 22:37:04;;;;;;;6.90;3.30;;;;;;;9.58;47.67;99311.42;433345;1270;108871;-43
2022/05/17 22:57:19;;;;;;;7.00;3.50;;;;;;;8.93;48.93;99327.45;433380;1268;111016;-44
2022/05/17 23:07:26;;;;;;;13.10;4.10;;;;;;;8.50;49.57;99344.85;433188;1268;108869;-41
2022/05/17 23:17:34;;;;;;;4.60;3.10;;;;;;;8.26;50.07;99354.39;433263;1269;109316;-44
2022/05/17 23:38:07;;;;;;;4.50;3.00;;;;;;;7.92;50.56;99368.86;433305;1270;111123;-44
2022/05/17 23:48:14;;;;;;;5.70;3.80;;;;;;;7.73;50.98;99377.21;433327;1270;108918;-44
2022/05/17 23:58:22;;;;;;;6.00;3.40;;;;;;;7.42;51.64;99395.05;433179;1269;108763;-46
